createdAt,value
2022-09-29T00:00:51.518Z,100.00
2022-09-29T00:03:19.986Z,100.00
2022-09-29T00:05:50.650Z,100.00
2022-09-29T00:08:19.016Z,100.00
2022-09-29T00:10:47.693Z,100.00
2022-09-29T00:13:16.469Z,100.00
2022-09-29T00:15:44.581Z,100.00
2022-09-29T00:18:14.471Z,100.00
2022-09-29T00:20:42.466Z,100.00
2022-09-29T00:23:11.351Z,100.00
2022-09-29T00:25:39.678Z,100.00
2022-09-29T00:28:07.423Z,100.00
2022-09-29T00:30:35.152Z,100.00
2022-09-29T00:33:02.951Z,100.00
2022-09-29T00:35:30.752Z,100.00
2022-09-29T00:37:58.779Z,100.00
2022-09-29T00:40:28.044Z,100.00
2022-09-29T00:42:55.668Z,100.00
2022-09-29T00:45:25.235Z,100.00
2022-09-29T00:48:04.623Z,100.00
2022-09-29T00:50:40.768Z,100.00
2022-09-29T00:53:13.383Z,100.00
2022-09-29T00:55:47.278Z,100.00
2022-09-29T00:58:22.680Z,100.00
2022-09-29T01:00:50.458Z,100.00
2022-09-29T01:03:21.776Z,100.00
2022-09-29T01:05:54.099Z,100.00
2022-09-29T01:08:24.733Z,100.00
2022-09-29T01:10:55.232Z,100.00
2022-09-29T01:13:23.265Z,100.00
2022-09-29T01:15:50.874Z,100.00
2022-09-29T01:18:18.706Z,100.00
2022-09-29T01:20:54.367Z,100.00
2022-09-29T01:23:35.542Z,100.00
2022-09-29T01:26:35.372Z,100.00
2022-09-29T01:29:45.290Z,100.00
2022-09-29T01:32:20.605Z,100.00
2022-09-29T01:34:53.457Z,100.00
2022-09-29T01:37:26.303Z,100.00
2022-09-29T01:40:00.938Z,100.00
2022-09-29T01:42:32.580Z,100.00
2022-09-29T01:45:04.033Z,100.00
2022-09-29T01:47:37.740Z,100.00
2022-09-29T01:50:08.103Z,100.00
2022-09-29T01:52:41.860Z,100.00
2022-09-29T01:55:11.599Z,100.00
2022-09-29T01:57:44.924Z,100.00
2022-09-29T02:00:15.712Z,100.00
2022-09-29T02:02:47.695Z,100.00
2022-09-29T02:05:18.418Z,100.00
2022-09-29T02:07:47.663Z,100.00
2022-09-29T02:10:19.364Z,100.00
2022-09-29T02:12:48.270Z,100.00
2022-09-29T02:15:20.197Z,100.00
2022-09-29T02:17:52.005Z,100.00
2022-09-29T02:20:20.065Z,100.00
2022-09-29T02:22:47.836Z,100.00
2022-09-29T02:25:18.370Z,100.00
2022-09-29T02:27:46.519Z,100.00
2022-09-29T02:30:14.371Z,100.00
2022-09-29T02:32:42.692Z,100.00
2022-09-29T02:35:13.143Z,100.00
2022-09-29T02:37:54.689Z,100.00
2022-09-29T02:40:34.095Z,100.00
2022-09-29T02:43:15.921Z,100.00
2022-09-29T02:45:55.260Z,100.00
2022-09-29T02:48:38.239Z,100.00
2022-09-29T02:51:18.853Z,100.00
2022-09-29T02:53:54.244Z,100.00
2022-09-29T02:56:26.933Z,100.00
2022-09-29T02:58:59.066Z,100.00
2022-09-29T03:01:26.974Z,100.00
2022-09-29T03:03:54.554Z,100.00
2022-09-29T03:06:24.172Z,100.00
2022-09-29T03:08:51.889Z,100.00
2022-09-29T03:11:19.429Z,100.00
2022-09-29T03:13:47.190Z,100.00
2022-09-29T03:16:15.155Z,100.00
2022-09-29T03:18:44.171Z,100.00
2022-09-29T03:21:12.075Z,100.00
2022-09-29T03:23:41.026Z,100.00
2022-09-29T03:26:08.884Z,100.00
2022-09-29T03:28:37.189Z,100.00
2022-09-29T03:31:05.904Z,100.00
2022-09-29T03:33:33.716Z,100.00
2022-09-29T03:36:01.904Z,100.00
2022-09-29T03:38:29.762Z,100.00
2022-09-29T03:40:58.899Z,100.00
2022-09-29T03:43:26.468Z,100.00
2022-09-29T03:45:55.844Z,100.00
2022-09-29T03:48:24.956Z,100.00
2022-09-29T03:50:53.814Z,100.00
2022-09-29T03:53:21.448Z,100.00
2022-09-29T03:55:50.071Z,100.00
2022-09-29T03:58:19.723Z,100.00
2022-09-29T04:00:49.795Z,100.00
2022-09-29T04:03:17.719Z,100.00
2022-09-29T04:05:46.026Z,100.00
2022-09-29T04:08:13.814Z,100.00
2022-09-29T04:10:41.994Z,100.00
2022-09-29T04:13:10.706Z,100.00
2022-09-29T04:15:39.672Z,100.00
2022-09-29T04:18:07.632Z,100.00
2022-09-29T04:20:35.209Z,100.00
2022-09-29T04:23:02.773Z,100.00
2022-09-29T04:25:31.576Z,100.00
2022-09-29T04:28:00.146Z,100.00
2022-09-29T04:30:27.870Z,100.00
2022-09-29T04:32:56.954Z,100.00
2022-09-29T04:35:24.591Z,100.00
2022-09-29T04:37:57.100Z,100.00
2022-09-29T04:40:24.979Z,100.00
2022-09-29T04:42:53.107Z,100.00
2022-09-29T04:45:20.906Z,100.00
2022-09-29T04:47:48.992Z,100.00
2022-09-29T04:50:18.321Z,100.00
2022-09-29T04:52:46.595Z,100.00
2022-09-29T04:55:15.172Z,100.00
2022-09-29T04:57:44.552Z,100.00
2022-09-29T05:00:13.009Z,100.00
2022-09-29T05:02:40.791Z,100.00
2022-09-29T05:05:10.343Z,100.00
2022-09-29T05:07:40.280Z,100.00
2022-09-29T05:10:10.641Z,100.00
2022-09-29T05:12:38.372Z,100.00
2022-09-29T05:15:07.168Z,100.00
2022-09-29T05:17:35.186Z,100.00
2022-09-29T05:20:03.571Z,100.00
2022-09-29T05:22:31.384Z,100.00
2022-09-29T05:25:01.301Z,100.00
2022-09-29T05:27:28.851Z,100.00
2022-09-29T05:29:56.412Z,100.00
2022-09-29T05:32:24.209Z,100.00
2022-09-29T05:34:51.939Z,100.00
2022-09-29T05:37:19.471Z,100.00
2022-09-29T05:39:47.954Z,100.00
2022-09-29T05:42:17.158Z,100.00
2022-09-29T05:44:44.918Z,100.00
2022-09-29T05:47:12.661Z,100.00
2022-09-29T05:49:40.288Z,100.00
2022-09-29T05:52:07.986Z,100.00
2022-09-29T05:54:35.920Z,100.00
2022-09-29T05:57:03.428Z,100.00
2022-09-29T05:59:32.510Z,100.00
2022-09-29T06:02:00.412Z,100.00
2022-09-29T06:04:28.348Z,100.00
2022-09-29T06:06:56.368Z,100.00
2022-09-29T06:09:24.744Z,100.00
2022-09-29T06:11:52.261Z,100.00
2022-09-29T06:14:19.938Z,100.00
2022-09-29T06:16:50.106Z,100.00
2022-09-29T06:19:17.989Z,100.00
2022-09-29T06:21:46.865Z,100.00
2022-09-29T06:24:14.718Z,100.00
2022-09-29T06:26:42.537Z,100.00
2022-09-29T06:29:10.417Z,100.00
2022-09-29T06:31:38.766Z,100.00
2022-09-29T06:34:08.065Z,100.00
2022-09-29T06:36:56.313Z,100.00
2022-09-29T06:39:24.030Z,100.00
2022-09-29T06:41:54.389Z,100.00
2022-09-29T06:44:24.482Z,100.00
2022-09-29T06:46:52.447Z,100.00
2022-09-29T06:49:21.774Z,100.00
2022-09-29T06:51:50.514Z,100.00
2022-09-29T06:54:20.929Z,100.00
2022-09-29T06:56:50.476Z,100.00
2022-09-29T06:59:18.865Z,100.00
2022-09-29T07:01:51.002Z,100.00
2022-09-29T07:04:21.812Z,100.00
2022-09-29T07:06:52.371Z,100.00
2022-09-29T07:09:21.171Z,100.00
2022-09-29T07:11:50.614Z,100.00
2022-09-29T07:14:20.398Z,100.00
2022-09-29T07:16:48.523Z,100.00
2022-09-29T07:19:16.953Z,100.00
2022-09-29T07:21:46.382Z,100.00
2022-09-29T07:24:14.809Z,100.00
2022-09-29T07:26:42.358Z,100.00
2022-09-29T07:29:18.270Z,100.00
2022-09-29T07:31:51.860Z,100.00
2022-09-29T07:34:20.113Z,100.00
2022-09-29T07:36:49.347Z,100.00
2022-09-29T07:39:17.727Z,100.00
2022-09-29T07:41:45.756Z,100.00
2022-09-29T07:44:14.154Z,100.00
2022-09-29T07:46:41.722Z,100.00
2022-09-29T07:49:09.588Z,100.00
2022-09-29T07:51:37.338Z,100.00
2022-09-29T07:54:06.618Z,100.00
2022-09-29T07:56:35.521Z,100.00
2022-09-29T07:59:04.167Z,100.00
2022-09-29T08:01:32.229Z,100.00
2022-09-29T08:03:59.943Z,100.00
2022-09-29T08:06:28.035Z,100.00
2022-09-29T08:09:04.017Z,100.00
2022-09-29T08:11:34.876Z,100.00
2022-09-29T08:14:03.115Z,100.00
2022-09-29T08:16:30.927Z,100.00
2022-09-29T08:18:58.507Z,100.00
2022-09-29T08:21:26.442Z,100.00
2022-09-29T08:23:54.115Z,100.00
2022-09-29T08:26:35.713Z,100.00
2022-09-29T08:29:09.109Z,100.00
2022-09-29T08:31:37.988Z,100.00
2022-09-29T08:34:05.854Z,100.00
2022-09-29T08:36:33.421Z,100.00
2022-09-29T08:39:01.109Z,100.00
2022-09-29T08:41:38.447Z,100.00
2022-09-29T08:44:28.895Z,100.00
2022-09-29T08:47:10.014Z,100.00
2022-09-29T08:49:41.632Z,100.00
2022-09-29T08:52:17.140Z,100.00
2022-09-29T08:54:49.197Z,100.00
2022-09-29T08:57:18.946Z,100.00
2022-09-29T08:59:55.072Z,100.00
2022-09-29T09:02:39.390Z,100.00
2022-09-29T09:05:25.983Z,100.00
2022-09-29T09:08:00.557Z,100.00
2022-09-29T09:10:37.546Z,100.00
2022-09-29T09:13:17.647Z,100.00
2022-09-29T09:15:58.291Z,100.00
2022-09-29T09:18:37.359Z,100.00
2022-09-29T09:21:09.368Z,100.00
2022-09-29T09:23:46.310Z,100.00
2022-09-29T09:26:14.870Z,100.00
2022-09-29T09:28:44.504Z,100.00
2022-09-29T09:31:17.583Z,100.00
2022-09-29T09:34:01.570Z,100.00
2022-09-29T09:36:36.845Z,100.00
2022-09-29T09:39:08.043Z,100.00
2022-09-29T09:41:37.431Z,100.00
2022-09-29T09:44:08.397Z,100.00
2022-09-29T09:46:41.205Z,100.00
2022-09-29T09:49:17.454Z,100.00
2022-09-29T09:51:49.281Z,100.00
2022-09-29T09:54:23.458Z,100.00
2022-09-29T09:57:23.389Z,100.00
2022-09-29T10:00:01.141Z,100.00
2022-09-29T10:02:31.017Z,100.00
2022-09-29T10:04:58.729Z,100.00
2022-09-29T10:07:30.133Z,100.00
2022-09-29T10:09:58.956Z,100.00
2022-09-29T10:12:26.586Z,100.00
2022-09-29T10:14:58.264Z,100.00
2022-09-29T10:17:31.416Z,100.00
2022-09-29T10:20:00.172Z,100.00
2022-09-29T10:22:28.869Z,100.00
2022-09-29T10:25:09.222Z,99.01
2022-09-29T10:27:41.236Z,99.13
2022-09-29T10:30:19.164Z,98.90
2022-09-29T10:32:48.284Z,97.41
2022-09-29T10:35:23.780Z,96.10
2022-09-29T10:37:59.777Z,92.85
2022-09-29T10:40:27.302Z,94.78
2022-09-29T10:42:55.074Z,94.05
2022-09-29T10:45:24.594Z,93.45
2022-09-29T10:50:54.908Z,90.61
2022-09-29T10:53:34.184Z,88.21
2022-09-29T10:56:05.531Z,89.80
2022-09-29T10:58:52.671Z,87.75
2022-09-29T11:01:23.781Z,86.79
2022-09-29T11:03:54.773Z,84.18
2022-09-29T11:06:29.087Z,85.60
2022-09-29T11:09:02.122Z,87.42
2022-09-29T11:11:31.317Z,85.18
2022-09-29T11:13:59.285Z,83.63
2022-09-29T11:16:37.976Z,83.15
2022-09-29T11:19:08.803Z,81.87
2022-09-29T11:22:11.173Z,81.79
2022-09-29T11:24:50.491Z,84.12
2022-09-29T11:27:29.638Z,85.16
2022-09-29T11:30:03.038Z,82.59
2022-09-29T11:32:42.017Z,80.30
2022-09-29T11:35:24.801Z,82.25
2022-09-29T11:38:10.976Z,80.21
2022-09-29T11:40:45.456Z,81.75
2022-09-29T11:43:27.515Z,78.91
2022-09-29T11:46:01.580Z,77.51
2022-09-29T11:48:44.768Z,73.14
2022-09-29T11:51:20.555Z,75.62
2022-09-29T11:54:03.985Z,77.12
2022-09-29T11:56:39.797Z,76.16
2022-09-29T11:59:17.515Z,73.46
2022-09-29T12:01:55.324Z,74.65
2022-09-29T12:04:35.266Z,73.29
2022-09-29T12:07:09.774Z,74.52
2022-09-29T12:09:59.436Z,75.13
2022-09-29T12:12:34.336Z,75.66
2022-09-29T12:15:09.174Z,77.92
2022-09-29T12:17:39.406Z,74.65
2022-09-29T12:20:10.581Z,73.76
2022-09-29T12:22:39.186Z,70.27
2022-09-29T12:25:14.906Z,70.38
2022-09-29T12:27:44.315Z,77.83
2022-09-29T12:30:16.884Z,75.06
2022-09-29T12:32:51.801Z,73.72
2022-09-29T12:35:23.915Z,73.76
2022-09-29T12:37:57.682Z,71.62
2022-09-29T12:40:33.116Z,71.57
2022-09-29T12:43:05.888Z,71.87
2022-09-29T12:45:36.580Z,67.56
2022-09-29T12:48:16.908Z,68.62
2022-09-29T12:50:51.328Z,67.55
2022-09-29T12:53:22.837Z,69.47
2022-09-29T12:55:59.341Z,67.42
2022-09-29T12:58:32.869Z,65.63
2022-09-29T13:01:05.053Z,64.93
2022-09-29T13:03:56.443Z,63.27
2022-09-29T13:06:36.807Z,65.02
2022-09-29T13:09:24.649Z,65.17
2022-09-29T13:12:02.464Z,64.21
2022-09-29T13:14:55.856Z,58.24
2022-09-29T13:17:45.794Z,57.42
2022-09-29T13:20:30.959Z,54.08
2022-09-29T13:23:19.618Z,51.39
2022-09-29T13:25:55.816Z,54.02
2022-09-29T13:28:30.759Z,51.83
2022-09-29T13:31:02.504Z,51.65
2022-09-29T13:33:30.310Z,51.16
2022-09-29T13:35:58.260Z,51.38
2022-09-29T13:38:28.216Z,51.19
2022-09-29T13:41:11.301Z,49.76
2022-09-29T13:43:41.185Z,51.88
2022-09-29T13:46:28.343Z,48.45
2022-09-29T13:49:04.167Z,48.05
2022-09-29T13:51:52.599Z,49.42
2022-09-29T13:54:26.006Z,47.21
2022-09-29T13:57:01.379Z,45.65
2022-09-29T13:59:30.208Z,46.50
2022-09-29T14:01:58.887Z,48.01
2022-09-29T14:04:47.342Z,52.44
2022-09-29T14:07:35.425Z,47.48
2022-09-29T14:10:07.148Z,45.66
2022-09-29T14:12:35.833Z,46.55
2022-09-29T14:15:05.179Z,46.01
2022-09-29T14:17:36.383Z,46.37
2022-09-29T14:20:14.757Z,45.67
2022-09-29T14:23:03.608Z,49.23
2022-09-29T14:25:50.585Z,45.72
2022-09-29T14:28:21.987Z,43.31
2022-09-29T14:30:52.675Z,43.95
2022-09-29T14:33:23.345Z,47.13
2022-09-29T14:35:56.476Z,47.60
2022-09-29T14:38:26.546Z,47.50
2022-09-29T14:40:55.894Z,44.75
2022-09-29T14:43:26.398Z,47.19
2022-09-29T14:46:30.764Z,43.62
2022-09-29T14:49:22.137Z,43.89
2022-09-29T14:52:01.716Z,41.64
2022-09-29T14:54:43.146Z,42.97
2022-09-29T14:57:24.573Z,44.28
2022-09-29T15:00:03.405Z,44.76
2022-09-29T15:02:34.352Z,45.25
2022-09-29T15:05:13.700Z,44.56
2022-09-29T15:07:42.669Z,45.98
2022-09-29T15:10:26.926Z,44.67
2022-09-29T15:12:54.851Z,44.49
2022-09-29T15:15:34.655Z,46.80
2022-09-29T15:18:12.866Z,47.62
2022-09-29T15:20:53.550Z,48.44
2022-09-29T15:23:36.836Z,45.80
2022-09-29T15:26:05.085Z,46.07
2022-09-29T15:28:35.001Z,46.23
2022-09-29T15:31:04.936Z,45.70
2022-09-29T15:33:38.432Z,49.23
2022-09-29T15:36:08.573Z,45.83
2022-09-29T15:38:38.701Z,44.20
2022-09-29T15:41:16.652Z,45.96
2022-09-29T15:43:46.666Z,45.07
2022-09-29T15:46:18.046Z,47.21
2022-09-29T15:49:08.039Z,45.68
2022-09-29T15:51:35.948Z,47.14
2022-09-29T15:54:05.091Z,47.28
2022-09-29T15:56:32.896Z,47.68
2022-09-29T15:59:02.489Z,50.33
2022-09-29T16:01:30.120Z,49.84
2022-09-29T16:04:01.597Z,49.82
2022-09-29T16:06:31.890Z,53.63
2022-09-29T16:09:02.052Z,57.41
2022-09-29T16:15:27.042Z,61.17
2022-09-29T16:17:54.739Z,63.87
2022-09-29T16:20:28.483Z,64.91
2022-09-29T16:22:57.044Z,63.12
2022-09-29T16:25:27.166Z,64.35
2022-09-29T16:27:57.422Z,64.02
2022-09-29T16:30:27.857Z,65.64
2022-09-29T16:32:59.528Z,66.66
2022-09-29T16:35:50.836Z,72.27
2022-09-29T16:38:34.326Z,69.33
2022-09-29T16:41:09.499Z,76.09
2022-09-29T16:43:38.172Z,77.45
2022-09-29T16:46:08.338Z,76.29
2022-09-29T16:48:39.538Z,85.38
2022-09-29T16:51:27.826Z,85.62
2022-09-29T16:54:00.289Z,89.03
2022-09-29T16:56:33.630Z,88.08
2022-09-29T16:59:13.182Z,89.53
2022-09-29T17:01:41.597Z,90.45
2022-09-29T17:04:14.160Z,90.57
2022-09-29T17:06:47.034Z,92.71
2022-09-29T17:09:19.900Z,97.39
2022-09-29T17:11:48.746Z,99.92
2022-09-29T17:14:18.287Z,100.00
2022-09-29T17:16:46.283Z,100.00
2022-09-29T17:19:14.071Z,100.00
2022-09-29T17:21:43.924Z,100.00
2022-09-29T17:24:15.912Z,100.00
2022-09-29T17:27:02.909Z,100.00
2022-09-29T17:29:31.701Z,100.00
2022-09-29T17:32:02.238Z,100.00
2022-09-29T17:34:30.133Z,100.00
2022-09-29T17:37:01.743Z,100.00
2022-09-29T17:39:29.772Z,100.00
2022-09-29T17:41:58.999Z,100.00
2022-09-29T17:44:27.995Z,100.00
2022-09-29T17:47:05.615Z,100.00
2022-09-29T17:49:44.320Z,100.00
2022-09-29T17:52:15.485Z,100.00
2022-09-29T17:54:43.231Z,100.00
2022-09-29T17:57:18.181Z,100.00
2022-09-29T17:59:45.873Z,100.00
2022-09-29T18:02:17.979Z,100.00
2022-09-29T18:04:48.748Z,100.00
2022-09-29T18:07:17.610Z,100.00
2022-09-29T18:09:47.303Z,100.00
2022-09-29T18:12:14.988Z,100.00
2022-09-29T18:14:42.894Z,100.00
2022-09-29T18:17:11.195Z,100.00
2022-09-29T18:19:39.989Z,100.00
2022-09-29T18:22:08.150Z,100.00
2022-09-29T18:24:37.304Z,100.00
2022-09-29T18:27:05.665Z,100.00
2022-09-29T18:29:34.275Z,100.00
2022-09-29T18:32:02.491Z,100.00
2022-09-29T18:34:33.390Z,100.00
2022-09-29T18:37:01.812Z,100.00
2022-09-29T18:39:29.420Z,100.00
2022-09-29T18:41:58.776Z,100.00
2022-09-29T18:44:29.473Z,100.00
2022-09-29T18:46:57.099Z,100.00
2022-09-29T18:49:25.730Z,100.00
2022-09-29T18:51:53.691Z,100.00
2022-09-29T18:54:21.179Z,100.00
2022-09-29T18:56:51.419Z,100.00
2022-09-29T18:59:23.006Z,100.00
2022-09-29T19:01:50.941Z,100.00
2022-09-29T19:04:18.797Z,100.00
2022-09-29T19:06:46.523Z,100.00
2022-09-29T19:09:14.719Z,100.00
2022-09-29T19:11:42.386Z,100.00
2022-09-29T19:14:10.097Z,100.00
2022-09-29T19:16:39.269Z,100.00
2022-09-29T19:19:08.437Z,100.00
2022-09-29T19:21:35.962Z,100.00
2022-09-29T19:24:03.474Z,100.00
2022-09-29T19:26:31.350Z,100.00
2022-09-29T19:28:58.994Z,100.00
2022-09-29T19:31:26.688Z,100.00
2022-09-29T19:33:57.358Z,100.00
2022-09-29T19:36:25.080Z,100.00
2022-09-29T19:38:52.999Z,100.00
2022-09-29T19:41:22.436Z,100.00
2022-09-29T19:43:50.456Z,100.00
2022-09-29T19:46:19.680Z,100.00
2022-09-29T19:48:47.408Z,100.00
2022-09-29T19:51:34.513Z,100.00
2022-09-29T19:54:14.413Z,100.00
2022-09-29T19:56:43.922Z,100.00
2022-09-29T19:59:14.640Z,100.00
2022-09-29T20:01:42.632Z,100.00
2022-09-29T20:04:11.572Z,100.00
2022-09-29T20:06:41.553Z,100.00
2022-09-29T20:09:09.918Z,100.00
2022-09-29T20:11:37.946Z,100.00
2022-09-29T20:14:07.540Z,100.00
2022-09-29T20:16:37.514Z,100.00
2022-09-29T20:19:07.047Z,100.00
2022-09-29T20:21:39.605Z,100.00
2022-09-29T20:24:08.551Z,100.00
2022-09-29T20:26:36.822Z,100.00
2022-09-29T20:29:05.008Z,100.00
2022-09-29T20:31:38.780Z,100.00
2022-09-29T20:34:06.868Z,100.00
2022-09-29T20:36:35.349Z,100.00
2022-09-29T20:39:02.995Z,100.00
2022-09-29T20:41:32.010Z,100.00
2022-09-29T20:44:00.567Z,100.00
2022-09-29T20:46:28.582Z,100.00
2022-09-29T20:48:58.665Z,100.00
2022-09-29T20:51:27.205Z,100.00
2022-09-29T20:53:56.512Z,100.00
2022-09-29T20:56:25.646Z,100.00
2022-09-29T20:58:54.738Z,100.00
2022-09-29T21:01:24.093Z,100.00
2022-09-29T21:03:52.991Z,100.00
2022-09-29T21:06:21.050Z,100.00
2022-09-29T21:08:48.815Z,100.00
2022-09-29T21:11:16.998Z,100.00
2022-09-29T21:13:47.013Z,100.00
2022-09-29T21:16:16.075Z,100.00
2022-09-29T21:18:43.823Z,100.00
2022-09-29T21:21:11.811Z,100.00
2022-09-29T21:23:41.793Z,100.00
2022-09-29T21:26:14.111Z,100.00
2022-09-29T21:28:43.103Z,100.00
2022-09-29T21:31:12.505Z,100.00
2022-09-29T21:33:42.794Z,100.00
2022-09-29T21:36:13.087Z,100.00
2022-09-29T21:38:43.124Z,100.00
2022-09-29T21:41:15.977Z,100.00
2022-09-29T21:43:45.055Z,100.00
2022-09-29T21:46:14.561Z,100.00
2022-09-29T21:48:43.737Z,100.00
2022-09-29T21:51:13.413Z,100.00
2022-09-29T21:53:41.747Z,100.00
2022-09-29T21:56:11.372Z,100.00
2022-09-29T21:58:39.270Z,100.00
2022-09-29T22:01:11.544Z,100.00
2022-09-29T22:03:41.917Z,100.00
2022-09-29T22:06:14.115Z,100.00
2022-09-29T22:08:42.251Z,100.00
2022-09-29T22:11:10.800Z,100.00
2022-09-29T22:13:39.203Z,100.00
2022-09-29T22:16:08.602Z,100.00
2022-09-29T22:18:41.459Z,100.00
2022-09-29T22:21:17.142Z,100.00
2022-09-29T22:23:46.617Z,100.00
2022-09-29T22:26:15.908Z,100.00
2022-09-29T22:28:45.132Z,100.00
2022-09-29T22:31:14.138Z,100.00
2022-09-29T22:33:43.494Z,100.00
2022-09-29T22:36:12.298Z,100.00
2022-09-29T22:38:42.724Z,100.00
2022-09-29T22:41:13.502Z,100.00
2022-09-29T22:43:41.046Z,100.00
2022-09-29T22:46:09.263Z,100.00
2022-09-29T22:48:37.436Z,100.00
2022-09-29T22:51:05.656Z,100.00
2022-09-29T22:53:33.713Z,100.00
2022-09-29T22:56:02.891Z,100.00
2022-09-29T22:58:32.004Z,100.00
2022-09-29T23:01:04.771Z,100.00
2022-09-29T23:03:32.533Z,100.00
2022-09-29T23:06:00.777Z,100.00
2022-09-29T23:08:30.377Z,100.00
2022-09-29T23:10:58.038Z,100.00
2022-09-29T23:13:27.800Z,100.00
2022-09-29T23:15:56.840Z,100.00
2022-09-29T23:18:24.377Z,100.00
2022-09-29T23:20:52.384Z,100.00
2022-09-29T23:23:20.535Z,100.00
2022-09-29T23:25:49.707Z,100.00
2022-09-29T23:28:17.543Z,100.00
2022-09-29T23:30:45.040Z,100.00
2022-09-29T23:33:14.149Z,100.00
2022-09-29T23:35:41.672Z,100.00
2022-09-29T23:38:27.871Z,100.00
2022-09-29T23:40:55.551Z,100.00
2022-09-29T23:43:23.839Z,100.00
2022-09-29T23:45:51.635Z,100.00
2022-09-29T23:48:21.748Z,100.00
2022-09-29T23:50:49.559Z,100.00
2022-09-29T23:53:17.486Z,100.00
2022-09-29T23:55:45.191Z,100.00
2022-09-29T23:58:12.928Z,100.00
